Royal Melbourne — WDC2865 — position and weather

sailwx.info

Track history (hours):
 
Tides and Currents Weather Stations Pressure Air Temp Water Temp Dewpoint Dewpoint Depression Visibility Wind Speed Wind Dir Waves Ship Positions

Royal Melbourne

Owner: Harley Marine Services, Inc, Seattle, WA. More information available from US FCC via Universal Licensing System and Coast Guard Vessel Documentation Center.

Last reported at 2015-May-27 09:32 UTC. Time now 2015-May-27 09:50 UTC.
Position N 37°55' W 122°22'.

Length 30 m; draft 2 m.

Type: Tug. MMSI: 366998830.

Date/timePositionNaut miles runAvg speedWind from/ knotsBaromVisibWave heightAir tempDewpointWater temp
2015-May-27 09:32N 37°55' W 122°22'0 0.0
2015-May-27 08:32N 37°55' W 122°22'0 0.0
2015-May-27 07:32N 37°55' W 122°22'0 0.0
2015-May-27 06:32N 37°55' W 122°22'0 0.0
2015-May-27 05:31N 37°55' W 122°22'0 0.0
2015-May-27 04:31N 37°55' W 122°22'0 0.0
2015-May-27 03:31N 37°55' W 122°22'0 0.0
2015-May-27 02:31N 37°55' W 122°22'0 0.0
2015-May-27 01:31N 37°55' W 122°22'0 0.0
2015-May-27 00:28N 37°55' W 122°22'0 0.0
2015-May-26 23:31N 37°55' W 122°22'0 0.0
2015-May-26 22:22N 37°55' W 122°22'0 0.0
2015-May-26 21:31N 37°55' W 122°22'0 0.0
2015-May-26 20:31N 37°55' W 122°22'0 0.0
2015-May-26 19:31N 37°55' W 122°22'0 0.0
2015-May-26 18:31N 37°55' W 122°22'3 2.8
2015-May-26 17:27N 37°56' W 122°25'8 6.7
2015-May-26 16:12N 38°03' W 122°19'  
2015-May-23 05:13N 37°56' W 122°26'6 8.5
2015-May-23 04:33N 37°51' W 122°23'5 5.0
2015-May-23 03:32N 37°48' W 122°18'0 0.0
2015-May-23 02:34N 37°48' W 122°18'0 0.0
2015-May-23 01:33N 37°48' W 122°18'0 0.0
2015-May-23 00:33N 37°48' W 122°18'2 2.1
2015-May-22 23:32N 37°48' W 122°21'0 0.1
2015-May-22 22:31N 37°48' W 122°21'2 2.4
2015-May-22 21:33N 37°48' W 122°24'2 2.0
2015-May-22 20:34N 37°48' W 122°22'3 3.4
2015-May-22 19:33N 37°48' W 122°17'0 0.0
2015-May-22 18:33N 37°48' W 122°17'0 0.0
2015-May-22 17:33N 37°48' W 122°17'0 0.0
2015-May-22 16:33N 37°48' W 122°17'3 2.8
2015-May-22 15:33N 37°48' W 122°21'3 2.7
2015-May-22 14:33N 37°48' W 122°24'1 0.6
2015-May-22 13:33N 37°49' W 122°23'5 5.1
2015-May-22 12:33N 37°48' W 122°17'0 0.0
2015-May-22 11:32N 37°48' W 122°17'0 0.0
2015-May-22 10:26N 37°48' W 122°17'0 0.0
2015-May-22 08:08N 37°48' W 122°17'0 0.0
2015-May-22 07:28N 37°48' W 122°17'0 0.0
2015-May-22 06:19N 37°48' W 122°17'0 0.0
2015-May-22 05:31N 37°48' W 122°17'0 0.0
2015-May-22 04:31N 37°48' W 122°17'0 0.1
2015-May-22 03:33N 37°48' W 122°17'3 3.3
2015-May-22 02:30N 37°46' W 122°21'0 0.0
2015-May-22 01:33N 37°46' W 122°21'0 0.1
2015-May-21 23:09N 37°45' W 122°21'0 0.1
2015-May-21 21:04N 37°45' W 122°21'4 8.2
2015-May-21 20:32N 37°49' W 122°23'5 5.0
2015-May-21 19:31N 37°54' W 122°23'1 0.4
2015-May-21 17:17N 37°55' W 122°22'0 0.0
2015-May-21 16:17N 37°55' W 122°22'0 0.0
2015-May-21 14:26N 37°55' W 122°22'3 3.1
2015-May-21 13:25N 37°52' W 122°24'9 9.8
2015-May-21 12:30N 37°44' W 122°21'0 0.0
2015-May-21 11:29N 37°44' W 122°21'0 0.0
2015-May-21 02:32N 37°44' W 122°21'4 3.6
2015-May-21 01:33N 37°47' W 122°22'6 6.2
2015-May-21 00:32N 37°53' W 122°25'2 0.2
2015-May-20 13:32N 37°54' W 122°22'5 5.2
2015-May-20 12:33N 37°49' W 122°21'2 1.9
2015-May-20 11:32N 37°49' W 122°19'0 0.0
2015-May-20 10:20N 37°49' W 122°19'0 0.0
2015-May-20 09:32N 37°49' W 122°19'0 0.0
2015-May-20 08:32N 37°49' W 122°19'0 0.0
2015-May-20 07:32N 37°49' W 122°19'0 0.0
2015-May-20 06:32N 37°49' W 122°19'0 0.0
2015-May-20 05:32N 37°49' W 122°19'0 0.0
2015-May-20 04:32N 37°49' W 122°19'0 0.0
2015-May-20 03:32N 37°49' W 122°19'2 2.0
2015-May-20 02:33N 37°48' W 122°21'2 1.8
2015-May-20 01:33N 37°46' W 122°21'1 0.5
2015-May-20 00:31N 37°46' W 122°20'0 0.1
2015-May-19 21:32N 37°45' W 122°20'1 0.8
2015-May-19 20:14N 37°45' W 122°21'0 0.0
2015-May-19 19:14N 37°45' W 122°21'0 0.0
2015-May-19 17:20N 37°45' W 122°21'3 3.5
2015-May-19 16:33N 37°48' W 122°22'7 7.1
2015-May-19 15:33N 37°54' W 122°25'2 1.9
2015-May-19 14:20N 37°55' W 122°22'0 0.0
2015-May-19 12:07N 37°55' W 122°22'0 0.0
2015-May-19 11:30N 37°55' W 122°22'0 0.0
2015-May-19 10:31N 37°55' W 122°22'0 0.0
2015-May-19 09:33N 37°55' W 122°22'0 0.0
2015-May-19 08:29N 37°55' W 122°22'0 0.0
2015-May-19 05:26N 37°55' W 122°22'0 0.0
2015-May-19 04:17N 37°55' W 122°22'0 0.0
2015-May-19 03:33N 37°55' W 122°22'0 0.0
2015-May-19 02:32N 37°55' W 122°22'0 0.0
2015-May-19 01:31N 37°55' W 122°22'0 0.0
2015-May-19 00:22N 37°55' W 122°22'1 0.9
2015-May-18 23:31N 37°54' W 122°22'6 5.9
2015-May-18 22:33N 37°49' W 122°23'4 0.7
2015-May-18 17:19N 37°45' W 122°20'1 1.0
2015-May-18 16:33N 37°46' W 122°21'1 0.3
2015-May-18 14:27N 37°46' W 122°21'0 0.1
2015-May-18 13:33N 37°46' W 122°21'0 0.0
2015-May-18 12:21N 37°46' W 122°21'0 0.0
2015-May-18 11:30N 37°46' W 122°21'0 0.4
2015-May-18 10:33N 37°46' W 122°21'1 1.3
2015-May-18 09:33N 37°47' W 122°22'5 5.2
2015-May-18 08:33N 37°52' W 122°24'3 3.4
2015-May-18 07:33N 37°55' W 122°22'0 0.0
2015-May-18 06:28N 37°55' W 122°22'0 0.0
2015-May-18 04:25N 37°55' W 122°22'0 0.0
2015-May-18 03:25N 37°55' W 122°22'0 0.0
2015-May-18 02:28N 37°55' W 122°22'0 0.0
2015-May-18 01:16N 37°55' W 122°22'0 0.0
2015-May-17 20:33N 37°55' W 122°22'4 4.1
2015-May-17 19:33N 37°51' W 122°24'6 6.5
2015-May-17 18:33N 37°45' W 122°21'0 0.3
2015-May-17 17:33N 37°45' W 122°20'1 1.1
2015-May-17 16:33N 37°46' W 122°20'3 2.9
2015-May-17 15:29N 37°48' W 122°17'0 0.0
2015-May-17 14:32N 37°48' W 122°17'0 0.0
2015-May-17 13:23N 37°48' W 122°17'0 0.0
2015-May-17 12:26N 37°48' W 122°17'0 0.0
2015-May-17 11:32N 37°48' W 122°17'0 0.0
2015-May-17 10:29N 37°48' W 122°17'  
Track history (hours):
 
Tides and Currents Weather Stations Pressure Air Temp Water Temp Dewpoint Dewpoint Depression Visibility Wind Speed Wind Dir Waves Ship Positions

Royal Melbourne

Owner: Harley Marine Services, Inc, Seattle, WA. More information available from US FCC via Universal Licensing System and Coast Guard Vessel Documentation Center.

Last reported at 2015-May-27 09:32 UTC. Time now 2015-May-27 09:50 UTC.
Position N 37°55' W 122°22'.

Length 30 m; draft 2 m.

Type: Tug. MMSI: 366998830.

Date/timePositionNaut miles runAvg speedWind from/ knotsBaromVisibWave heightAir tempDewpointWater temp
2015-May-27 09:32N 37°55' W 122°22'0 0.0
2015-May-27 08:32N 37°55' W 122°22'0 0.0
2015-May-27 07:32N 37°55' W 122°22'0 0.0
2015-May-27 06:32N 37°55' W 122°22'0 0.0
2015-May-27 05:31N 37°55' W 122°22'0 0.0
2015-May-27 04:31N 37°55' W 122°22'0 0.0
2015-May-27 03:31N 37°55' W 122°22'0 0.0
2015-May-27 02:31N 37°55' W 122°22'0 0.0
2015-May-27 01:31N 37°55' W 122°22'0 0.0
2015-May-27 00:28N 37°55' W 122°22'0 0.0
2015-May-26 23:31N 37°55' W 122°22'0 0.0
2015-May-26 22:22N 37°55' W 122°22'0 0.0
2015-May-26 21:31N 37°55' W 122°22'0 0.0
2015-May-26 20:31N 37°55' W 122°22'0 0.0
2015-May-26 19:31N 37°55' W 122°22'0 0.0
2015-May-26 18:31N 37°55' W 122°22'3 2.8
2015-May-26 17:27N 37°56' W 122°25'8 6.7
2015-May-26 16:12N 38°03' W 122°19'  
2015-May-23 05:13N 37°56' W 122°26'6 8.5
2015-May-23 04:33N 37°51' W 122°23'5 5.0
2015-May-23 03:32N 37°48' W 122°18'0 0.0
2015-May-23 02:34N 37°48' W 122°18'0 0.0
2015-May-23 01:33N 37°48' W 122°18'0 0.0
2015-May-23 00:33N 37°48' W 122°18'2 2.1
2015-May-22 23:32N 37°48' W 122°21'0 0.1
2015-May-22 22:31N 37°48' W 122°21'2 2.4
2015-May-22 21:33N 37°48' W 122°24'2 2.0
2015-May-22 20:34N 37°48' W 122°22'3 3.4
2015-May-22 19:33N 37°48' W 122°17'0 0.0
2015-May-22 18:33N 37°48' W 122°17'0 0.0
2015-May-22 17:33N 37°48' W 122°17'0 0.0
2015-May-22 16:33N 37°48' W 122°17'3 2.8
2015-May-22 15:33N 37°48' W 122°21'3 2.7
2015-May-22 14:33N 37°48' W 122°24'1 0.6
2015-May-22 13:33N 37°49' W 122°23'5 5.1
2015-May-22 12:33N 37°48' W 122°17'0 0.0
2015-May-22 11:32N 37°48' W 122°17'0 0.0
2015-May-22 10:26N 37°48' W 122°17'0 0.0
2015-May-22 08:08N 37°48' W 122°17'0 0.0
2015-May-22 07:28N 37°48' W 122°17'0 0.0
2015-May-22 06:19N 37°48' W 122°17'0 0.0
2015-May-22 05:31N 37°48' W 122°17'0 0.0
2015-May-22 04:31N 37°48' W 122°17'0 0.1
2015-May-22 03:33N 37°48' W 122°17'3 3.3
2015-May-22 02:30N 37°46' W 122°21'0 0.0
2015-May-22 01:33N 37°46' W 122°21'0 0.1
2015-May-21 23:09N 37°45' W 122°21'0 0.1
2015-May-21 21:04N 37°45' W 122°21'4 8.2
2015-May-21 20:32N 37°49' W 122°23'5 5.0
2015-May-21 19:31N 37°54' W 122°23'1 0.4
2015-May-21 17:17N 37°55' W 122°22'0 0.0
2015-May-21 16:17N 37°55' W 122°22'0 0.0
2015-May-21 14:26N 37°55' W 122°22'3 3.1
2015-May-21 13:25N 37°52' W 122°24'9 9.8
2015-May-21 12:30N 37°44' W 122°21'0 0.0
2015-May-21 11:29N 37°44' W 122°21'0 0.0
2015-May-21 02:32N 37°44' W 122°21'4 3.6
2015-May-21 01:33N 37°47' W 122°22'6 6.2
2015-May-21 00:32N 37°53' W 122°25'2 0.2
2015-May-20 13:32N 37°54' W 122°22'5 5.2
2015-May-20 12:33N 37°49' W 122°21'2 1.9
2015-May-20 11:32N 37°49' W 122°19'0 0.0
2015-May-20 10:20N 37°49' W 122°19'0 0.0
2015-May-20 09:32N 37°49' W 122°19'0 0.0
2015-May-20 08:32N 37°49' W 122°19'0 0.0
2015-May-20 07:32N 37°49' W 122°19'0 0.0
2015-May-20 06:32N 37°49' W 122°19'0 0.0
2015-May-20 05:32N 37°49' W 122°19'0 0.0
2015-May-20 04:32N 37°49' W 122°19'0 0.0
2015-May-20 03:32N 37°49' W 122°19'2 2.0
2015-May-20 02:33N 37°48' W 122°21'2 1.8
2015-May-20 01:33N 37°46' W 122°21'1 0.5
2015-May-20 00:31N 37°46' W 122°20'0 0.1
2015-May-19 21:32N 37°45' W 122°20'1 0.8
2015-May-19 20:14N 37°45' W 122°21'0 0.0
2015-May-19 19:14N 37°45' W 122°21'0 0.0
2015-May-19 17:20N 37°45' W 122°21'3 3.5
2015-May-19 16:33N 37°48' W 122°22'7 7.1
2015-May-19 15:33N 37°54' W 122°25'2 1.9
2015-May-19 14:20N 37°55' W 122°22'0 0.0
2015-May-19 12:07N 37°55' W 122°22'0 0.0
2015-May-19 11:30N 37°55' W 122°22'0 0.0
2015-May-19 10:31N 37°55' W 122°22'0 0.0
2015-May-19 09:33N 37°55' W 122°22'0 0.0
2015-May-19 08:29N 37°55' W 122°22'0 0.0
2015-May-19 05:26N 37°55' W 122°22'0 0.0
2015-May-19 04:17N 37°55' W 122°22'0 0.0
2015-May-19 03:33N 37°55' W 122°22'0 0.0
2015-May-19 02:32N 37°55' W 122°22'0 0.0
2015-May-19 01:31N 37°55' W 122°22'0 0.0
2015-May-19 00:22N 37°55' W 122°22'1 0.9
2015-May-18 23:31N 37°54' W 122°22'6 5.9
2015-May-18 22:33N 37°49' W 122°23'4 0.7
2015-May-18 17:19N 37°45' W 122°20'1 1.0
2015-May-18 16:33N 37°46' W 122°21'1 0.3
2015-May-18 14:27N 37°46' W 122°21'0 0.1
2015-May-18 13:33N 37°46' W 122°21'0 0.0
2015-May-18 12:21N 37°46' W 122°21'0 0.0
2015-May-18 11:30N 37°46' W 122°21'0 0.4
2015-May-18 10:33N 37°46' W 122°21'1 1.3
2015-May-18 09:33N 37°47' W 122°22'5 5.2
2015-May-18 08:33N 37°52' W 122°24'3 3.4
2015-May-18 07:33N 37°55' W 122°22'0 0.0
2015-May-18 06:28N 37°55' W 122°22'0 0.0
2015-May-18 04:25N 37°55' W 122°22'0 0.0
2015-May-18 03:25N 37°55' W 122°22'0 0.0
2015-May-18 02:28N 37°55' W 122°22'0 0.0
2015-May-18 01:16N 37°55' W 122°22'0 0.0
2015-May-17 20:33N 37°55' W 122°22'4 4.1
2015-May-17 19:33N 37°51' W 122°24'6 6.5
2015-May-17 18:33N 37°45' W 122°21'0 0.3
2015-May-17 17:33N 37°45' W 122°20'1 1.1
2015-May-17 16:33N 37°46' W 122°20'3 2.9
2015-May-17 15:29N 37°48' W 122°17'0 0.0
2015-May-17 14:32N 37°48' W 122°17'0 0.0
2015-May-17 13:23N 37°48' W 122°17'0 0.0
2015-May-17 12:26N 37°48' W 122°17'0 0.0
2015-May-17 11:32N 37°48' W 122°17'0 0.0
2015-May-17 10:29N 37°48' W 122°17'  

Dump ship's entire track history